createdAt,value
2022-10-02T00:02:29.834Z,98672.31
2022-10-02T00:05:29.209Z,98681.22
2022-10-02T00:08:10.122Z,98678.56
2022-10-02T00:10:55.069Z,98678.16
2022-10-02T00:13:34.730Z,98686.25
2022-10-02T00:16:10.084Z,98690.28
2022-10-02T00:18:40.207Z,98698.19
2022-10-02T00:21:26.413Z,98703.44
2022-10-02T00:24:08.404Z,98708.09
2022-10-02T00:26:48.072Z,98730.94
2022-10-02T00:29:51.722Z,98730.47
2022-10-02T00:32:49.457Z,98737.69
2022-10-02T00:35:41.247Z,98740.47
2022-10-02T00:38:42.014Z,98744.31
2022-10-02T00:42:00.629Z,98752.34
2022-10-02T00:44:52.969Z,98758.16
2022-10-02T00:47:42.190Z,98755.69
2022-10-02T00:51:00.883Z,98764.34
2022-10-02T00:53:39.456Z,98764.13
2022-10-02T00:56:49.726Z,98774.84
2022-10-02T00:59:58.415Z,98768.22
2022-10-02T01:02:31.772Z,98769.19
2022-10-02T01:05:04.123Z,98771.16
2022-10-02T01:07:31.725Z,98774.72
2022-10-02T01:09:59.527Z,98781.38
2022-10-02T01:12:27.210Z,98786.38
2022-10-02T01:14:54.656Z,98791.19
2022-10-02T01:17:31.581Z,98800.19
2022-10-02T01:20:02.401Z,98813.44
2022-10-02T01:22:51.292Z,98810.75
2022-10-02T01:25:18.847Z,98801.50
2022-10-02T01:27:46.681Z,98803.59
2022-10-02T01:30:20.091Z,98812.69
2022-10-02T01:32:56.425Z,98806.25
2022-10-02T01:35:33.104Z,98810.69
2022-10-02T01:38:07.104Z,98808.72
2022-10-02T01:40:38.054Z,98800.63
2022-10-02T01:43:13.238Z,98815.41
2022-10-02T01:46:14.337Z,98807.38
2022-10-02T01:49:04.552Z,98817.13
2022-10-02T01:52:20.134Z,98824.63
2022-10-02T01:55:26.734Z,98833.97
2022-10-02T01:58:03.223Z,98829.59
2022-10-02T02:00:57.775Z,98835.97
2022-10-02T02:03:44.935Z,98838.84
2022-10-02T02:06:27.137Z,98839.13
2022-10-02T02:09:27.240Z,98846.03
2022-10-02T02:12:22.437Z,98846.03
2022-10-02T02:15:06.328Z,98853.78
2022-10-02T02:17:54.745Z,98857.81
2022-10-02T02:20:31.023Z,98874.50
2022-10-02T02:23:06.803Z,98879.56
2022-10-02T02:25:40.839Z,98884.59
2022-10-02T02:28:13.601Z,98886.66
2022-10-02T02:30:46.728Z,98886.66
2022-10-02T02:33:25.671Z,98895.16
2022-10-02T02:36:01.138Z,98895.59
2022-10-02T02:38:37.959Z,98902.09
2022-10-02T02:41:14.225Z,98904.13
2022-10-02T02:44:03.907Z,98901.50
2022-10-02T02:47:01.451Z,98899.69
2022-10-02T02:49:40.967Z,98912.66
2022-10-02T02:52:20.838Z,98903.13
2022-10-02T02:55:02.206Z,98893.56
2022-10-02T02:57:38.993Z,98891.53
2022-10-02T03:00:08.290Z,98900.16
2022-10-02T03:02:35.818Z,98909.34
2022-10-02T03:05:11.719Z,98915.19
2022-10-02T03:07:39.360Z,98920.59
2022-10-02T03:10:19.605Z,98918.78
2022-10-02T03:13:02.805Z,98932.34
2022-10-02T03:15:54.667Z,98931.91
2022-10-02T03:19:18.378Z,98930.66
2022-10-02T03:22:18.046Z,98931.66
2022-10-02T03:24:56.919Z,98923.50
2022-10-02T03:27:44.656Z,98929.50
2022-10-02T03:30:15.570Z,98938.50
2022-10-02T03:32:46.557Z,98943.28
2022-10-02T03:35:15.465Z,98954.59
2022-10-02T03:37:49.574Z,98955.75
2022-10-02T03:40:17.284Z,98955.28
2022-10-02T03:42:44.736Z,98956.28
2022-10-02T03:45:23.053Z,98963.56
2022-10-02T03:47:59.833Z,98977.03
2022-10-02T03:50:27.325Z,98976.44
2022-10-02T03:52:54.871Z,98975.97
2022-10-02T03:55:33.899Z,98974.88
2022-10-02T03:58:12.086Z,98979.31
2022-10-02T04:00:46.586Z,98971.25
2022-10-02T04:03:20.931Z,98977.91
2022-10-02T04:05:58.346Z,98985.78
2022-10-02T04:08:34.563Z,98987.41
2022-10-02T04:11:17.171Z,98987.25
2022-10-02T04:13:57.555Z,98978.91
2022-10-02T04:16:46.707Z,98987.25
2022-10-02T04:19:28.278Z,98985.44
2022-10-02T04:22:06.129Z,98990.22
2022-10-02T04:24:48.513Z,98995.28
2022-10-02T04:27:36.651Z,98997.09
2022-10-02T04:30:14.083Z,98997.09
2022-10-02T04:32:41.760Z,99008.66
2022-10-02T04:35:30.785Z,99001.00
2022-10-02T04:38:28.805Z,99005.06
2022-10-02T04:41:14.362Z,99004.31
2022-10-02T04:44:11.784Z,99010.19
2022-10-02T04:47:02.258Z,99002.44
2022-10-02T04:50:14.361Z,99011.38
2022-10-02T04:53:19.435Z,99015.44
2022-10-02T04:56:47.196Z,99022.94
2022-10-02T05:00:01.414Z,99018.16
2022-10-02T05:03:08.607Z,99024.44
2022-10-02T05:05:58.048Z,99023.50
2022-10-02T05:08:47.486Z,99025.31
2022-10-02T05:11:47.060Z,99029.69
2022-10-02T05:14:38.295Z,99031.81
2022-10-02T05:17:51.152Z,99034.81
2022-10-02T05:20:55.586Z,99031.84
2022-10-02T05:23:59.970Z,99031.09
2022-10-02T05:26:49.227Z,99028.88
2022-10-02T05:29:51.716Z,99034.63
2022-10-02T05:32:37.804Z,99032.16
2022-10-02T05:35:41.836Z,99031.28
2022-10-02T05:38:29.546Z,99027.50
2022-10-02T05:41:05.892Z,99036.50
2022-10-02T05:43:48.319Z,99034.13
2022-10-02T05:46:27.012Z,99032.72
2022-10-02T05:49:13.968Z,99031.72
2022-10-02T05:52:05.334Z,99033.19
2022-10-02T05:55:07.742Z,99037.19
2022-10-02T05:57:41.498Z,99032.06
2022-10-02T06:00:24.269Z,99034.00
2022-10-02T06:03:49.107Z,99034.72
2022-10-02T06:06:43.613Z,99029.22
2022-10-02T06:09:27.606Z,99034.53
2022-10-02T06:11:57.740Z,99021.38
2022-10-02T06:14:37.169Z,99031.06
2022-10-02T06:17:13.414Z,99037.91
2022-10-02T06:20:25.241Z,99043.44
2022-10-02T06:23:04.380Z,99046.69
2022-10-02T06:25:40.695Z,99028.13
2022-10-02T06:28:21.317Z,99037.47
2022-10-02T06:31:01.955Z,99042.47
2022-10-02T06:33:33.479Z,99038.63
2022-10-02T06:36:42.824Z,99043.22
2022-10-02T06:39:56.491Z,99048.34
2022-10-02T06:42:42.183Z,99054.19
2022-10-02T06:45:43.121Z,99054.81
2022-10-02T06:48:40.986Z,99061.75
2022-10-02T06:51:19.978Z,99062.28
2022-10-02T06:54:34.703Z,99063.75
2022-10-02T06:57:39.560Z,99070.59
2022-10-02T07:00:14.705Z,99072.59
2022-10-02T07:02:44.907Z,99066.47
2022-10-02T07:05:43.027Z,99073.16
2022-10-02T07:08:49.776Z,99075.00
2022-10-02T07:11:35.198Z,99081.03
2022-10-02T07:14:32.721Z,99065.66
2022-10-02T07:17:22.094Z,99060.94
2022-10-02T07:20:29.726Z,99069.78
2022-10-02T07:23:35.060Z,99072.69
2022-10-02T07:26:35.442Z,99079.41
2022-10-02T07:29:16.873Z,99086.19
2022-10-02T07:32:38.087Z,99089.22
2022-10-02T07:35:27.398Z,99091.03
2022-10-02T07:38:43.174Z,99103.75
2022-10-02T07:42:06.279Z,99105.03
2022-10-02T07:44:54.486Z,99113.69
2022-10-02T07:47:33.628Z,99112.38
2022-10-02T07:50:31.291Z,99115.16
2022-10-02T07:53:39.095Z,99108.63
2022-10-02T07:56:19.866Z,99117.25
2022-10-02T07:58:54.822Z,99114.97
2022-10-02T08:01:30.800Z,99118.59
2022-10-02T08:04:10.151Z,99125.91
2022-10-02T08:06:39.594Z,99125.16
2022-10-02T08:09:45.726Z,99125.94
2022-10-02T08:12:39.769Z,99121.59
2022-10-02T08:15:16.948Z,99120.47
2022-10-02T08:17:54.238Z,99122.31
2022-10-02T08:20:35.505Z,99121.88
2022-10-02T08:23:06.892Z,99126.75
2022-10-02T08:26:09.817Z,99121.06
2022-10-02T08:28:57.931Z,99121.22
2022-10-02T08:31:25.754Z,99130.31
2022-10-02T08:33:53.553Z,99121.72
2022-10-02T08:36:32.725Z,99119.06
2022-10-02T08:39:25.902Z,99113.94
2022-10-02T08:42:24.936Z,99124.16
2022-10-02T08:45:26.685Z,99126.22
2022-10-02T08:48:00.092Z,99118.81
2022-10-02T08:50:47.624Z,99124.41
2022-10-02T08:53:57.211Z,99127.38
2022-10-02T08:56:36.531Z,99109.69
2022-10-02T08:59:44.679Z,99112.66
2022-10-02T09:02:57.122Z,99107.28
2022-10-02T09:06:15.372Z,99110.84
2022-10-02T09:09:26.225Z,99115.44
2022-10-02T09:12:50.703Z,99104.38
2022-10-02T09:15:42.769Z,99100.78
2022-10-02T09:18:43.818Z,99093.25
2022-10-02T09:21:34.363Z,99103.31
2022-10-02T09:24:52.164Z,99098.09
2022-10-02T09:27:48.514Z,99091.28
2022-10-02T09:30:58.311Z,99089.41
2022-10-02T09:33:53.184Z,99084.97
2022-10-02T09:36:56.315Z,99086.16
2022-10-02T09:40:15.225Z,99092.78
2022-10-02T09:43:30.188Z,99090.47
2022-10-02T09:46:14.411Z,99093.59
2022-10-02T09:49:20.084Z,99095.81
2022-10-02T09:52:10.341Z,99108.72
2022-10-02T09:55:05.330Z,99095.59
2022-10-02T09:58:24.140Z,99102.31
2022-10-02T10:01:31.692Z,99108.28
2022-10-02T10:04:09.150Z,99107.63
2022-10-02T10:07:30.699Z,99093.81
2022-10-02T10:10:12.980Z,99096.34
2022-10-02T10:13:03.401Z,99092.69
2022-10-02T10:16:05.889Z,99101.72
2022-10-02T10:19:03.908Z,99098.44
2022-10-02T10:21:55.510Z,99096.97
2022-10-02T10:24:54.891Z,99095.00
2022-10-02T10:28:17.649Z,99099.00
2022-10-02T10:31:34.490Z,99085.88
2022-10-02T10:34:29.870Z,99078.91
2022-10-02T10:37:32.068Z,99075.88
2022-10-02T10:40:38.606Z,99088.16
2022-10-02T10:43:51.310Z,99084.56
2022-10-02T10:47:07.941Z,99085.56
2022-10-02T10:49:38.629Z,99073.06
2022-10-02T10:52:42.029Z,99063.88
2022-10-02T10:55:33.268Z,99081.91
2022-10-02T10:58:03.668Z,99059.66
2022-10-02T11:01:07.267Z,99049.06
2022-10-02T11:04:13.459Z,99037.94
2022-10-02T11:07:07.855Z,99037.16
2022-10-02T11:10:19.759Z,99034.31
2022-10-02T11:13:05.749Z,99034.63
2022-10-02T11:16:17.325Z,99031.41
2022-10-02T11:18:54.283Z,99029.72
2022-10-02T11:22:17.007Z,99027.59
2022-10-02T11:25:13.154Z,99025.28
2022-10-02T11:28:29.964Z,99009.09
2022-10-02T11:31:35.420Z,99027.00
2022-10-02T11:35:10.551Z,99017.44
2022-10-02T11:38:15.099Z,99018.59
2022-10-02T11:41:22.213Z,99021.22
2022-10-02T11:44:10.472Z,99019.22
2022-10-02T11:47:07.215Z,99016.56
2022-10-02T11:49:47.411Z,99012.47
2022-10-02T11:52:38.969Z,99013.66
2022-10-02T11:55:50.431Z,99004.50
2022-10-02T11:58:52.130Z,99011.28
2022-10-02T12:01:54.710Z,98995.50
2022-10-02T12:04:40.860Z,99002.59
2022-10-02T12:07:36.410Z,99005.94
2022-10-02T12:10:45.244Z,98999.72
2022-10-02T12:13:15.856Z,98996.06
2022-10-02T12:16:20.816Z,98987.94
2022-10-02T12:18:58.548Z,98976.66
2022-10-02T12:22:03.112Z,98976.63
2022-10-02T12:25:35.192Z,98959.59
2022-10-02T12:28:32.537Z,98962.88
2022-10-02T12:31:29.896Z,98954.28
2022-10-02T12:34:48.389Z,98943.41
2022-10-02T12:37:55.291Z,98935.41
2022-10-02T12:40:48.574Z,98939.22
2022-10-02T12:43:53.855Z,98935.72
2022-10-02T12:46:51.241Z,98922.53
2022-10-02T12:49:59.729Z,98926.56
2022-10-02T12:52:58.755Z,98917.53
2022-10-02T12:56:01.693Z,98922.69
2022-10-02T12:59:13.104Z,98911.88
2022-10-02T13:02:49.246Z,98910.38
2022-10-02T13:05:35.542Z,98902.72
2022-10-02T13:08:05.586Z,98902.44
2022-10-02T13:11:27.113Z,98882.59
2022-10-02T13:14:35.866Z,98880.19
2022-10-02T13:17:32.076Z,98862.94
2022-10-02T13:20:20.510Z,98878.91
2022-10-02T13:23:33.748Z,98873.06
2022-10-02T13:26:08.566Z,98871.63
2022-10-02T13:29:02.958Z,98871.47
2022-10-02T13:32:36.305Z,98881.53
2022-10-02T13:35:24.964Z,98870.50
2022-10-02T13:38:27.662Z,98877.22
2022-10-02T13:41:16.473Z,98871.63
2022-10-02T13:44:26.799Z,98871.44
2022-10-02T13:48:00.516Z,98874.69
2022-10-02T13:51:16.459Z,98870.56
2022-10-02T13:53:52.465Z,98873.31
2022-10-02T13:56:34.996Z,98874.59
2022-10-02T13:59:36.716Z,98876.53
2022-10-02T14:02:54.961Z,98873.25
2022-10-02T14:05:58.037Z,98856.84
2022-10-02T14:09:30.673Z,98853.41
2022-10-02T14:12:35.545Z,98855.34
2022-10-02T14:15:27.883Z,98859.44
2022-10-02T14:18:38.157Z,98864.97
2022-10-02T14:21:22.735Z,98863.13
2022-10-02T14:24:01.986Z,98857.00
2022-10-02T14:27:02.786Z,98846.34
2022-10-02T14:30:03.183Z,98847.88
2022-10-02T14:33:24.967Z,98840.81
2022-10-02T14:36:19.294Z,98830.41
2022-10-02T14:39:20.498Z,98823.13
2022-10-02T14:42:09.357Z,98824.06
2022-10-02T14:45:10.190Z,98813.44
2022-10-02T14:48:18.814Z,98814.25
2022-10-02T14:51:33.677Z,98808.59
2022-10-02T14:54:58.402Z,98802.72
2022-10-02T14:57:37.655Z,98793.66
2022-10-02T15:00:17.601Z,98798.53
2022-10-02T15:03:10.171Z,98791.75
2022-10-02T15:06:01.778Z,98800.63
2022-10-02T15:08:41.532Z,98802.69
2022-10-02T15:11:39.088Z,98801.34
2022-10-02T15:14:18.621Z,98814.41
2022-10-02T15:17:36.089Z,98807.16
2022-10-02T15:20:22.582Z,98802.69
2022-10-02T15:23:01.298Z,98801.41
2022-10-02T15:25:52.642Z,98799.47
2022-10-02T15:28:52.338Z,98804.19
2022-10-02T15:32:04.828Z,98817.06
2022-10-02T15:35:17.175Z,98807.94
2022-10-02T15:37:47.194Z,98805.94
2022-10-02T15:40:17.370Z,98805.81
2022-10-02T15:43:16.800Z,98806.66
2022-10-02T15:46:17.094Z,98806.47
2022-10-02T15:49:30.043Z,98796.88
2022-10-02T15:52:26.346Z,98792.72
2022-10-02T15:55:20.121Z,98787.94
2022-10-02T15:57:58.472Z,98779.88
2022-10-02T16:00:27.322Z,98775.59
2022-10-02T16:03:01.946Z,98780.75
2022-10-02T16:05:53.249Z,98772.75
2022-10-02T16:09:13.664Z,98775.25
2022-10-02T16:11:56.087Z,98783.28
2022-10-02T16:14:49.902Z,98780.59
2022-10-02T16:17:26.258Z,98785.56
2022-10-02T16:20:45.243Z,98785.41
2022-10-02T16:23:27.393Z,98792.09
2022-10-02T16:26:35.238Z,98793.47
2022-10-02T16:29:32.532Z,98788.25
2022-10-02T16:32:26.914Z,98780.53
2022-10-02T16:35:25.337Z,98777.72
2022-10-02T16:38:20.468Z,98788.94
2022-10-02T16:41:13.651Z,98799.38
2022-10-02T16:44:43.561Z,98792.31
2022-10-02T16:47:19.354Z,98802.69
2022-10-02T16:50:23.399Z,98798.25
2022-10-02T16:53:13.087Z,98797.88
2022-10-02T16:55:47.272Z,98812.13
2022-10-02T16:58:28.640Z,98811.06
2022-10-02T17:02:06.010Z,98802.38
2022-10-02T17:05:02.027Z,98793.69
2022-10-02T17:07:50.136Z,98788.00
2022-10-02T17:10:36.655Z,98777.97
2022-10-02T17:13:12.160Z,98782.63
2022-10-02T17:16:15.420Z,98777.59
2022-10-02T17:19:16.836Z,98776.63
2022-10-02T17:21:56.114Z,98782.16
2022-10-02T17:24:46.811Z,98791.34
2022-10-02T17:27:32.712Z,98793.38
2022-10-02T17:30:17.226Z,98806.53
2022-10-02T17:32:52.973Z,98812.03
2022-10-02T17:35:50.489Z,98802.31
2022-10-02T17:39:05.724Z,98801.69
2022-10-02T17:41:53.647Z,98802.28
2022-10-02T17:44:45.239Z,98791.59
2022-10-02T17:47:31.742Z,98784.84
2022-10-02T17:50:30.761Z,98779.38
2022-10-02T17:53:40.295Z,98789.13
2022-10-02T17:56:38.738Z,98782.84
2022-10-02T18:00:01.466Z,98796.81
2022-10-02T18:03:37.055Z,98789.94
2022-10-02T18:06:19.176Z,98797.41
2022-10-02T18:09:38.652Z,98788.28
2022-10-02T18:12:33.857Z,98780.81
2022-10-02T18:15:43.491Z,98776.94
2022-10-02T18:18:47.951Z,98766.44
2022-10-02T18:21:33.353Z,98760.16
2022-10-02T18:24:10.744Z,98761.75
2022-10-02T18:26:52.921Z,98759.72
2022-10-02T18:30:08.779Z,98757.69
2022-10-02T18:33:14.742Z,98756.50
2022-10-02T18:36:10.776Z,98739.69
2022-10-02T18:38:58.674Z,98735.00
2022-10-02T18:41:41.098Z,98738.84
2022-10-02T18:44:45.009Z,98734.38
2022-10-02T18:47:48.373Z,98741.47
2022-10-02T18:50:50.882Z,98739.84
2022-10-02T18:53:36.995Z,98731.53
2022-10-02T18:56:12.273Z,98731.94
2022-10-02T18:58:49.252Z,98735.56
2022-10-02T19:01:42.253Z,98723.66
2022-10-02T19:04:36.532Z,98709.50
2022-10-02T19:07:21.098Z,98697.94
2022-10-02T19:10:21.316Z,98714.31
2022-10-02T19:12:55.275Z,98713.72
2022-10-02T19:15:29.158Z,98719.16
2022-10-02T19:18:03.900Z,98719.31
2022-10-02T19:20:53.643Z,98711.44
2022-10-02T19:23:48.243Z,98709.41
2022-10-02T19:26:25.753Z,98709.00
2022-10-02T19:29:02.167Z,98713.03
2022-10-02T19:31:39.604Z,98702.53
2022-10-02T19:34:19.661Z,98699.69
2022-10-02T19:36:53.103Z,98712.59
2022-10-02T19:39:31.223Z,98707.09
2022-10-02T19:42:07.677Z,98704.31
2022-10-02T19:45:13.895Z,98702.06
2022-10-02T19:47:48.464Z,98708.88
2022-10-02T19:50:55.336Z,98721.91
2022-10-02T19:53:41.072Z,98715.38
2022-10-02T19:56:17.632Z,98721.00
2022-10-02T19:58:59.787Z,98729.59
2022-10-02T20:01:35.942Z,98731.72
2022-10-02T20:04:06.263Z,98724.66
2022-10-02T20:06:40.402Z,98727.22
2022-10-02T20:09:27.344Z,98729.44
2022-10-02T20:12:20.195Z,98710.81
2022-10-02T20:15:43.606Z,98707.00
2022-10-02T20:18:14.499Z,98712.25
2022-10-02T20:20:47.115Z,98707.31
2022-10-02T20:23:28.089Z,98704.66
2022-10-02T20:26:01.990Z,98703.72
2022-10-02T20:28:49.386Z,98692.78
2022-10-02T20:31:34.170Z,98697.72
2022-10-02T20:34:15.384Z,98689.44
2022-10-02T20:37:07.953Z,98687.22
2022-10-02T20:39:44.604Z,98694.44
2022-10-02T20:42:25.724Z,98691.31
2022-10-02T20:44:53.408Z,98680.63
2022-10-02T20:48:14.613Z,98676.78
2022-10-02T20:50:57.280Z,98669.13
2022-10-02T20:54:06.023Z,98670.31
2022-10-02T20:57:15.677Z,98667.94
2022-10-02T20:59:58.231Z,98663.31
2022-10-02T21:03:11.913Z,98650.84
2022-10-02T21:05:59.425Z,98655.88
2022-10-02T21:09:06.921Z,98660.06
2022-10-02T21:12:03.113Z,98650.22
2022-10-02T21:15:19.868Z,98648.97
2022-10-02T21:18:36.600Z,98648.44
2022-10-02T21:21:21.768Z,98649.97
2022-10-02T21:24:28.817Z,98648.31
2022-10-02T21:27:17.688Z,98648.16
2022-10-02T21:30:14.100Z,98647.66
2022-10-02T21:33:11.059Z,98652.97
2022-10-02T21:36:27.733Z,98650.41
2022-10-02T21:39:22.803Z,98642.22
2022-10-02T21:42:17.605Z,98637.22
2022-10-02T21:45:39.107Z,98629.41
2022-10-02T21:48:53.100Z,98624.97
2022-10-02T21:51:26.034Z,98625.41
2022-10-02T21:54:35.730Z,98620.38
2022-10-02T21:57:44.319Z,98609.19
2022-10-02T22:00:27.398Z,98604.78
2022-10-02T22:03:19.007Z,98607.31
2022-10-02T22:06:13.144Z,98594.97
2022-10-02T22:09:08.439Z,98586.38
2022-10-02T22:12:04.690Z,98584.69
2022-10-02T22:14:46.282Z,98586.19
2022-10-02T22:17:57.023Z,98580.28
2022-10-02T22:20:42.903Z,98579.78
2022-10-02T22:23:25.432Z,98572.75
2022-10-02T22:26:22.794Z,98567.84
2022-10-02T22:29:00.859Z,98568.09
2022-10-02T22:32:25.563Z,98557.63
2022-10-02T22:35:18.732Z,98555.69
2022-10-02T22:38:25.667Z,98558.91
2022-10-02T22:41:06.800Z,98551.69
2022-10-02T22:44:03.690Z,98560.97
2022-10-02T22:46:31.190Z,98563.03
2022-10-02T22:49:16.393Z,98565.19
2022-10-02T22:52:17.337Z,98563.84
2022-10-02T22:54:51.963Z,98559.59
2022-10-02T22:57:46.896Z,98557.22
2022-10-02T23:00:21.375Z,98553.41
2022-10-02T23:02:59.340Z,98545.38
2022-10-02T23:06:14.389Z,98548.59
2022-10-02T23:09:18.575Z,98549.19
2022-10-02T23:12:11.851Z,98540.66
2022-10-02T23:15:41.756Z,98559.84
2022-10-02T23:18:30.166Z,98552.22
2022-10-02T23:21:20.138Z,98558.78
2022-10-02T23:23:58.611Z,98566.41
2022-10-02T23:26:46.764Z,98565.56
2022-10-02T23:29:35.966Z,98565.50
2022-10-02T23:32:41.574Z,98570.81
2022-10-02T23:35:23.891Z,98574.56
2022-10-02T23:37:54.142Z,98564.09
2022-10-02T23:40:48.462Z,98569.19
2022-10-02T23:43:48.726Z,98570.06
2022-10-02T23:46:25.979Z,98582.28
2022-10-02T23:48:54.987Z,98577.06
2022-10-02T23:51:52.826Z,98582.66
2022-10-02T23:54:32.410Z,98572.28
2022-10-02T23:57:16.292Z,98573.25
